Time;durP1;ratioP1;P1;durP2;ratioP2;P2;SDS_P1;SDS_P2;PMS_P1;PMS_P2;Temp;Humidity;BMP_temperature;BMP_pressure;BME280_temperature;BME280_humidity;BME280_pressure;Samples;Min_cycle;Max_cycle;Signal;HPM_P1;HPM_P2
2023/02/20 00:00:42;;;;;;;6.30;3.17;;;;;;;;;;5053192;28;20204;-69
2023/02/20 00:03:10;;;;;;;7.97;3.30;;;;;;;;;;5033020;28;20206;-69
2023/02/20 00:05:38;;;;;;;7.57;3.55;;;;;;;;;;5053182;28;20200;-69
2023/02/20 00:08:07;;;;;;;9.02;3.35;;;;;;;;;;5053780;28;20590;-69
2023/02/20 00:10:35;;;;;;;10.68;4.38;;;;;;;;;;5053932;28;20201;-69
2023/02/20 00:13:03;;;;;;;16.95;5.78;;;;;;;;;;5053812;28;20733;-69
2023/02/20 00:15:33;;;;;;;7.80;4.07;;;;;;;;;;5053997;28;20216;-69
2023/02/20 00:18:01;;;;;;;11.10;4.47;;;;;;;;;;5054112;28;20221;-68
2023/02/20 00:20:30;;;;;;;10.60;4.88;;;;;;;;;;5053395;28;20203;-68
2023/02/20 00:22:59;;;;;;;9.77;5.25;;;;;;;;;;5032763;28;20229;-68
2023/02/20 00:25:27;;;;;;;11.23;5.70;;;;;;;;;;5034478;28;20570;-68
2023/02/20 00:27:55;;;;;;;9.00;5.72;;;;;;;;;;5033983;28;20209;-68
2023/02/20 00:30:24;;;;;;;12.60;5.72;;;;;;;;;;5045224;28;20201;-69
2023/02/20 00:32:55;;;;;;;7.57;3.80;;;;;;;;;;5033401;28;20213;-69
2023/02/20 00:35:34;;;;;;;9.48;4.35;;;;;;;;;;5038693;28;20208;-69
2023/02/20 00:38:02;;;;;;;19.33;4.45;;;;;;;;;;5039704;28;20215;-68
2023/02/20 00:40:30;;;;;;;3.40;2.95;;;;;;;;;;5034892;28;20205;-68
2023/02/20 00:42:58;;;;;;;4.60;3.42;;;;;;;;;;5047825;28;20619;-68
2023/02/20 00:45:28;;;;;;;5.22;3.45;;;;;;;;;;5054940;28;20280;-68
2023/02/20 00:47:58;;;;;;;9.63;4.63;;;;;;;;;;5043516;28;20205;-69
2023/02/20 00:50:26;;;;;;;10.23;4.13;;;;;;;;;;5037219;28;20230;-68
2023/02/20 00:52:54;;;;;;;8.65;4.00;;;;;;;;;;5053394;28;20795;-68
2023/02/20 00:55:23;;;;;;;7.80;3.35;;;;;;;;;;5052703;28;20209;-68
2023/02/20 00:57:51;;;;;;;7.18;3.70;;;;;;;;;;5053503;28;20605;-68
2023/02/20 01:00:21;;;;;;;7.25;4.28;;;;;;;;;;5053024;28;20693;-68
2023/02/20 01:02:49;;;;;;;4.65;3.58;;;;;;;;;;5051215;28;20196;-68
2023/02/20 01:05:19;;;;;;;5.20;4.70;;;;;;;;;;5052480;28;20604;-68
2023/02/20 01:07:48;;;;;;;6.90;3.75;;;;;;;;;;5053314;28;20196;-67
2023/02/20 01:10:16;;;;;;;5.72;3.60;;;;;;;;;;5051760;28;20211;-67
2023/02/20 01:12:44;;;;;;;5.82;3.83;;;;;;;;;;5053642;28;20204;-67
2023/02/20 01:15:15;;;;;;;11.88;4.68;;;;;;;;;;5053241;28;20211;-68
2023/02/20 01:17:43;;;;;;;4.47;3.90;;;;;;;;;;5053238;28;20243;-67
2023/02/20 01:20:12;;;;;;;8.00;4.05;;;;;;;;;;5053313;28;20213;-67
2023/02/20 01:22:42;;;;;;;9.48;4.57;;;;;;;;;;5053121;28;20230;-68
2023/02/20 01:25:11;;;;;;;5.13;4.20;;;;;;;;;;5052019;28;20216;-67
2023/02/20 01:27:39;;;;;;;8.10;4.53;;;;;;;;;;5051429;28;20215;-68
2023/02/20 01:30:09;;;;;;;8.27;4.32;;;;;;;;;;5046888;28;20196;-68
2023/02/20 01:32:37;;;;;;;8.13;4.97;;;;;;;;;;5052106;28;20664;-67
2023/02/20 01:35:06;;;;;;;7.18;4.95;;;;;;;;;;5053219;28;20732;-67
2023/02/20 01:37:35;;;;;;;9.48;5.00;;;;;;;;;;5051310;28;20240;-68
2023/02/20 01:40:05;;;;;;;12.15;5.60;;;;;;;;;;5053532;28;20201;-67
2023/02/20 01:42:34;;;;;;;15.70;5.15;;;;;;;;;;5052868;28;20189;-68
2023/02/20 01:45:15;;;;;;;11.68;4.60;;;;;;;;;;5051646;28;20208;-68
2023/02/20 01:47:44;;;;;;;9.55;5.07;;;;;;;;;;5056496;28;20188;-68
2023/02/20 01:50:13;;;;;;;7.05;4.97;;;;;;;;;;5047008;28;20595;-68
2023/02/20 01:52:41;;;;;;;11.02;5.43;;;;;;;;;;5049540;28;20205;-68
2023/02/20 01:55:13;;;;;;;10.07;5.05;;;;;;;;;;5050048;28;20197;-69
2023/02/20 01:57:43;;;;;;;9.27;4.28;;;;;;;;;;5037306;28;20185;-68
2023/02/20 02:00:15;;;;;;;6.00;4.30;;;;;;;;;;5039943;28;20199;-67
2023/02/20 02:02:46;;;;;;;7.75;4.10;;;;;;;;;;5042638;28;20200;-67
2023/02/20 02:05:14;;;;;;;10.43;5.72;;;;;;;;;;5035592;28;20185;-67
2023/02/20 02:07:42;;;;;;;10.60;4.70;;;;;;;;;;5059038;28;20632;-67
2023/02/20 02:10:14;;;;;;;6.00;4.38;;;;;;;;;;5056409;28;20219;-67
2023/02/20 02:12:42;;;;;;;10.38;5.20;;;;;;;;;;5055442;28;20339;-67
2023/02/20 02:15:14;;;;;;;8.80;4.80;;;;;;;;;;5055279;28;20200;-67
2023/02/20 02:17:57;;;;;;;8.40;4.93;;;;;;;;;;5051901;28;20218;-67
2023/02/20 02:20:49;;;;;;;8.90;5.00;;;;;;;;;;5035423;28;20196;-67
2023/02/20 02:23:33;;;;;;;9.27;4.65;;;;;;;;;;4980695;28;20229;-67
2023/02/20 02:26:08;;;;;;;11.43;5.40;;;;;;;;;;5035292;28;20189;-67
2023/02/20 02:28:55;;;;;;;7.07;5.18;;;;;;;;;;5035831;28;20269;-67
2023/02/20 02:31:36;;;;;;;10.82;4.55;;;;;;;;;;5047607;28;20244;-67
2023/02/20 02:34:08;;;;;;;7.60;5.13;;;;;;;;;;5055647;28;20193;-68
2023/02/20 02:36:47;;;;;;;8.20;5.60;;;;;;;;;;5055702;28;20242;-68
2023/02/20 02:39:18;;;;;;;12.90;5.30;;;;;;;;;;5055923;28;20212;-67
2023/02/20 02:41:53;;;;;;;9.75;5.10;;;;;;;;;;5054351;28;20196;-67
2023/02/20 02:44:23;;;;;;;11.23;6.18;;;;;;;;;;5055360;28;20559;-67
2023/02/20 02:46:56;;;;;;;9.43;5.78;;;;;;;;;;5055049;28;20208;-67
2023/02/20 02:49:26;;;;;;;5.78;5.25;;;;;;;;;;5054542;28;20189;-68
2023/02/20 02:51:57;;;;;;;14.85;6.15;;;;;;;;;;5055834;28;20195;-68
2023/02/20 02:54:28;;;;;;;13.73;4.80;;;;;;;;;;5052056;28;20197;-67
2023/02/20 02:57:11;;;;;;;10.98;6.45;;;;;;;;;;5034910;28;20190;-67
2023/02/20 02:59:41;;;;;;;11.30;5.60;;;;;;;;;;5035139;28;20221;-68
2023/02/20 03:02:12;;;;;;;12.82;6.30;;;;;;;;;;5027705;28;20201;-67
2023/02/20 03:04:41;;;;;;;11.45;5.95;;;;;;;;;;5045812;28;20653;-67
2023/02/20 03:07:12;;;;;;;9.52;6.13;;;;;;;;;;5041047;28;20200;-67
2023/02/20 03:09:42;;;;;;;13.65;6.05;;;;;;;;;;5045194;28;20247;-68
2023/02/20 03:12:13;;;;;;;12.98;6.55;;;;;;;;;;5049706;28;20233;-68
2023/02/20 03:17:30;;;;;;;22.48;7.20;;;;;;;;;;5033239;28;20201;-68
2023/02/20 03:20:00;;;;;;;16.70;10.20;;;;;;;;;;5054478;28;20212;-68
2023/02/20 03:22:32;;;;;;;25.23;10.10;;;;;;;;;;5036381;28;20225;-68
2023/02/20 03:25:04;;;;;;;15.50;7.80;;;;;;;;;;5046880;28;20194;-68
2023/02/20 03:27:38;;;;;;;16.05;8.10;;;;;;;;;;5039198;28;20192;-69
2023/02/20 03:30:10;;;;;;;13.10;7.10;;;;;;;;;;5048861;28;20256;-68
2023/02/20 03:43:48;;;;;;;16.42;8.32;;;;;;;;;;5035481;28;20193;-68
2023/02/20 03:46:21;;;;;;;13.05;8.52;;;;;;;;;;5048350;28;20203;-68
2023/02/20 03:48:53;;;;;;;14.55;7.88;;;;;;;;;;5054385;28;20196;-68
2023/02/20 03:51:21;;;;;;;15.18;7.55;;;;;;;;;;5053928;28;20255;-68
2023/02/20 03:53:57;;;;;;;12.27;7.80;;;;;;;;;;5054613;28;20203;-68
2023/02/20 03:56:28;;;;;;;10.85;8.02;;;;;;;;;;5048784;28;20558;-67
2023/02/20 03:58:59;;;;;;;17.00;9.80;;;;;;;;;;5045318;28;20790;-68
2023/02/20 04:04:54;;;;;;;20.02;11.98;;;;;;;;;;5011981;28;20735;-67
2023/02/20 04:13:20;;;;;;;9.35;6.78;;;;;;;;;;5038322;28;20205;-68
2023/02/20 04:16:03;;;;;;;13.55;7.95;;;;;;;;;;5056447;28;20257;-67
2023/02/20 04:19:03;;;;;;;12.63;7.30;;;;;;;;;;5059378;28;20280;-67
2023/02/20 04:24:42;;;;;;;15.25;7.72;;;;;;;;;;5050662;28;20278;-68
2023/02/20 04:27:13;;;;;;;15.68;7.85;;;;;;;;;;5034839;28;20204;-67
2023/02/20 04:29:48;;;;;;;12.20;8.50;;;;;;;;;;5032298;28;20208;-67
2023/02/20 04:32:16;;;;;;;9.90;6.93;;;;;;;;;;5035365;28;20205;-68
2023/02/20 04:34:45;;;;;;;22.45;8.57;;;;;;;;;;5032539;28;20213;-68
2023/02/20 04:37:14;;;;;;;11.88;7.55;;;;;;;;;;5033461;28;20236;-67
2023/02/20 04:39:44;;;;;;;13.48;7.82;;;;;;;;;;5034127;28;20678;-67
2023/02/20 04:42:16;;;;;;;13.18;7.55;;;;;;;;;;5035107;28;20268;-68
2023/02/20 04:44:44;;;;;;;12.05;6.85;;;;;;;;;;5032582;28;20237;-67
2023/02/20 04:47:15;;;;;;;14.23;7.20;;;;;;;;;;5033008;28;20209;-67
2023/02/20 04:49:44;;;;;;;11.73;7.30;;;;;;;;;;5040899;28;20189;-67
2023/02/20 04:52:18;;;;;;;14.23;7.13;;;;;;;;;;5054189;28;20199;-68
2023/02/20 04:54:48;;;;;;;14.55;8.52;;;;;;;;;;5051915;28;20189;-67
2023/02/20 04:57:19;;;;;;;12.52;7.78;;;;;;;;;;5052798;28;20205;-67
2023/02/20 04:59:47;;;;;;;11.18;6.70;;;;;;;;;;5052392;28;20209;-67
2023/02/20 05:02:18;;;;;;;13.05;7.18;;;;;;;;;;5052068;28;20211;-68
2023/02/20 05:04:46;;;;;;;12.85;6.00;;;;;;;;;;5052851;28;20603;-67
2023/02/20 05:07:17;;;;;;;17.85;6.93;;;;;;;;;;5053557;28;20211;-68
2023/02/20 05:09:45;;;;;;;12.15;7.75;;;;;;;;;;5048862;28;20199;-67
2023/02/20 05:12:13;;;;;;;13.00;7.50;;;;;;;;;;5035393;28;20205;-68
2023/02/20 05:14:43;;;;;;;11.75;7.30;;;;;;;;;;5038521;28;20207;-68
2023/02/20 05:17:11;;;;;;;10.63;5.60;;;;;;;;;;5052711;28;20266;-68
2023/02/20 05:19:39;;;;;;;12.35;7.07;;;;;;;;;;5053204;28;20224;-67
2023/02/20 05:22:18;;;;;;;16.23;7.25;;;;;;;;;;5039887;28;20570;-68
2023/02/20 05:24:46;;;;;;;16.42;7.15;;;;;;;;;;5045984;28;20265;-68
2023/02/20 05:27:15;;;;;;;8.55;7.13;;;;;;;;;;5057420;28;20667;-67
2023/02/20 05:29:48;;;;;;;14.32;7.60;;;;;;;;;;5044412;28;20254;-67
2023/02/20 05:32:17;;;;;;;10.43;6.97;;;;;;;;;;5038019;28;20556;-67
2023/02/20 05:34:45;;;;;;;17.05;8.55;;;;;;;;;;5057304;28;20214;-67
2023/02/20 05:37:14;;;;;;;12.63;6.57;;;;;;;;;;5057032;28;20237;-67
2023/02/20 05:39:43;;;;;;;11.85;7.15;;;;;;;;;;5057020;28;20228;-67
2023/02/20 05:42:11;;;;;;;11.13;7.32;;;;;;;;;;5056926;28;20197;-67
2023/02/20 05:44:39;;;;;;;15.20;8.15;;;;;;;;;;5057653;28;20212;-67
2023/02/20 05:47:09;;;;;;;15.70;7.72;;;;;;;;;;5055787;28;20207;-68
2023/02/20 05:49:37;;;;;;;12.27;7.07;;;;;;;;;;5056420;28;20209;-67
2023/02/20 05:52:10;;;;;;;9.95;7.22;;;;;;;;;;5056814;28;20236;-71
2023/02/20 05:54:38;;;;;;;11.07;7.63;;;;;;;;;;5056869;28;20551;-68
2023/02/20 05:57:06;;;;;;;12.32;7.25;;;;;;;;;;5055467;28;20846;-68
2023/02/20 05:59:34;;;;;;;13.63;7.22;;;;;;;;;;5056356;28;20681;-68
2023/02/20 06:02:02;;;;;;;18.92;6.80;;;;;;;;;;5054228;28;20208;-68
2023/02/20 06:04:32;;;;;;;16.77;7.32;;;;;;;;;;5055053;28;20261;-68
2023/02/20 06:07:00;;;;;;;11.05;6.65;;;;;;;;;;5056245;28;20683;-68
2023/02/20 06:09:28;;;;;;;14.18;7.25;;;;;;;;;;5056395;28;20208;-68
2023/02/20 06:11:57;;;;;;;15.55;7.63;;;;;;;;;;5056412;28;20215;-68
2023/02/20 06:14:26;;;;;;;11.63;6.30;;;;;;;;;;5056023;28;20741;-68
2023/02/20 06:16:57;;;;;;;11.15;7.22;;;;;;;;;;5056053;28;20274;-67
2023/02/20 06:19:25;;;;;;;15.07;8.38;;;;;;;;;;5042065;28;20197;-68
2023/02/20 06:21:57;;;;;;;12.48;7.68;;;;;;;;;;5051346;28;20224;-68
2023/02/20 06:24:25;;;;;;;16.27;8.15;;;;;;;;;;5055591;28;20231;-68
2023/02/20 06:26:53;;;;;;;14.60;7.50;;;;;;;;;;5043410;28;20211;-68
2023/02/20 06:29:22;;;;;;;11.95;6.80;;;;;;;;;;5056051;28;20204;-68
2023/02/20 06:31:50;;;;;;;14.07;8.52;;;;;;;;;;5044453;28;20194;-68
2023/02/20 06:34:18;;;;;;;13.45;7.05;;;;;;;;;;5034644;28;20213;-68
2023/02/20 06:36:47;;;;;;;17.88;7.75;;;;;;;;;;5035037;28;20738;-67
2023/02/20 06:39:16;;;;;;;9.88;6.65;;;;;;;;;;5035541;28;20211;-68
2023/02/20 06:41:46;;;;;;;12.15;6.75;;;;;;;;;;5035959;28;20212;-68
2023/02/20 06:44:14;;;;;;;12.10;7.60;;;;;;;;;;5048821;28;20571;-68
2023/02/20 06:46:42;;;;;;;12.18;6.50;;;;;;;;;;5055725;28;20215;-68
2023/02/20 06:49:11;;;;;;;10.10;7.20;;;;;;;;;;5055523;28;20686;-68
2023/02/20 06:51:40;;;;;;;15.00;7.25;;;;;;;;;;5055402;28;20203;-68
2023/02/20 06:54:08;;;;;;;16.92;7.32;;;;;;;;;;5055754;28;20304;-68
2023/02/20 06:56:38;;;;;;;14.70;8.15;;;;;;;;;;5054460;28;20622;-68
2023/02/20 06:59:07;;;;;;;15.98;8.27;;;;;;;;;;5048474;28;20201;-68
2023/02/20 07:01:39;;;;;;;11.07;7.45;;;;;;;;;;5052168;28;20220;-68
2023/02/20 07:04:07;;;;;;;10.30;7.90;;;;;;;;;;5054940;28;20207;-68
2023/02/20 07:06:36;;;;;;;11.73;8.05;;;;;;;;;;5049218;28;20212;-68
2023/02/20 07:09:05;;;;;;;16.77;7.70;;;;;;;;;;5051073;28;20235;-69
2023/02/20 07:11:33;;;;;;;12.70;7.28;;;;;;;;;;5048839;28;20201;-68
2023/02/20 07:14:02;;;;;;;11.27;7.50;;;;;;;;;;5051013;28;20219;-68
2023/02/20 07:16:31;;;;;;;12.27;7.93;;;;;;;;;;5051756;28;20200;-68
2023/02/20 07:18:59;;;;;;;14.93;8.40;;;;;;;;;;5070322;28;20264;-68
2023/02/20 07:21:35;;;;;;;16.83;7.63;;;;;;;;;;5063049;28;20218;-68
2023/02/20 07:24:35;;;;;;;15.77;8.57;;;;;;;;;;5037261;28;20561;-68
2023/02/20 07:27:46;;;;;;;15.98;7.88;;;;;;;;;;5042520;28;20227;-68
2023/02/20 07:30:15;;;;;;;15.52;7.60;;;;;;;;;;5049712;28;20193;-68
2023/02/20 07:32:44;;;;;;;19.52;7.20;;;;;;;;;;5042725;28;20207;-68
2023/02/20 07:38:42;;;;;;;13.00;7.50;;;;;;;;;;5039813;28;20331;-68
2023/02/20 07:41:16;;;;;;;20.40;8.77;;;;;;;;;;5047826;28;20289;-68
2023/02/20 07:43:51;;;;;;;11.40;7.50;;;;;;;;;;5045941;28;20196;-68
2023/02/20 07:46:32;;;;;;;12.75;8.13;;;;;;;;;;5052167;28;20188;-68
2023/02/20 07:49:01;;;;;;;12.82;7.18;;;;;;;;;;5045467;28;20273;-67
2023/02/20 07:51:29;;;;;;;14.27;7.57;;;;;;;;;;5044260;28;20258;-67
2023/02/20 07:53:57;;;;;;;14.63;8.75;;;;;;;;;;5042657;28;20220;-67
2023/02/20 07:56:25;;;;;;;11.70;6.65;;;;;;;;;;5035582;28;20208;-67
2023/02/20 07:58:53;;;;;;;11.40;6.75;;;;;;;;;;5036948;28;20198;-67
2023/02/20 08:01:21;;;;;;;14.32;6.97;;;;;;;;;;5041807;28;20216;-67
2023/02/20 08:03:51;;;;;;;9.80;6.95;;;;;;;;;;5045211;28;20207;-67
2023/02/20 08:06:19;;;;;;;11.25;7.28;;;;;;;;;;5034220;28;20209;-67
2023/02/20 08:08:49;;;;;;;15.63;8.25;;;;;;;;;;5039173;28;20687;-67
2023/02/20 08:11:17;;;;;;;11.90;7.07;;;;;;;;;;5033687;28;20205;-67
2023/02/20 08:13:45;;;;;;;13.63;7.15;;;;;;;;;;5036571;28;20216;-66
2023/02/20 08:16:13;;;;;;;11.70;6.70;;;;;;;;;;5033363;28;20220;-67
2023/02/20 08:18:41;;;;;;;12.15;7.30;;;;;;;;;;5034881;28;20197;-67
2023/02/20 08:21:10;;;;;;;14.93;7.75;;;;;;;;;;5034602;28;20229;-67
2023/02/20 08:23:38;;;;;;;9.82;6.72;;;;;;;;;;5040875;28;20236;-67
2023/02/20 08:26:06;;;;;;;13.52;6.88;;;;;;;;;;5043340;28;20192;-67
2023/02/20 08:28:34;;;;;;;12.95;7.57;;;;;;;;;;5041389;28;20224;-67
2023/02/20 08:31:02;;;;;;;12.43;6.57;;;;;;;;;;5043928;28;20212;-67
2023/02/20 08:33:30;;;;;;;12.43;7.10;;;;;;;;;;5041272;28;20604;-67
2023/02/20 08:35:59;;;;;;;14.57;7.55;;;;;;;;;;5039752;28;20732;-65
2023/02/20 08:38:30;;;;;;;11.30;6.57;;;;;;;;;;5043131;28;20099;-65
2023/02/20 08:40:58;;;;;;;11.88;6.20;;;;;;;;;;5039834;28;20748;-66
2023/02/20 08:43:30;;;;;;;10.85;6.38;;;;;;;;;;5043115;28;20646;-66
2023/02/20 08:46:03;;;;;;;16.25;6.43;;;;;;;;;;5044956;28;20200;-66
2023/02/20 08:48:47;;;;;;;14.85;6.57;;;;;;;;;;5045595;28;20192;-66
2023/02/20 08:51:28;;;;;;;9.15;5.15;;;;;;;;;;5037851;28;20197;-65
2023/02/20 08:54:00;;;;;;;11.27;5.05;;;;;;;;;;5037387;28;20196;-64
2023/02/20 08:56:28;;;;;;;10.43;6.00;;;;;;;;;;5040539;28;20652;-64
2023/02/20 08:58:57;;;;;;;9.20;4.82;;;;;;;;;;5033881;28;20211;-65
2023/02/20 09:01:25;;;;;;;11.93;6.43;;;;;;;;;;5031383;28;20228;-65
2023/02/20 09:03:54;;;;;;;14.43;5.55;;;;;;;;;;5033514;28;20204;-65
2023/02/20 09:06:24;;;;;;;15.52;6.10;;;;;;;;;;5050765;28;20656;-66
2023/02/20 09:08:53;;;;;;;11.02;5.32;;;;;;;;;;5048478;28;20203;-64
2023/02/20 09:11:22;;;;;;;12.68;5.88;;;;;;;;;;5033324;28;20197;-65
2023/02/20 09:13:53;;;;;;;6.65;4.50;;;;;;;;;;5044048;28;20210;-65
2023/02/20 09:16:22;;;;;;;11.23;4.85;;;;;;;;;;5046850;28;20677;-65
2023/02/20 09:18:53;;;;;;;8.38;4.65;;;;;;;;;;5049962;28;20211;-65
2023/02/20 09:21:21;;;;;;;6.40;4.97;;;;;;;;;;5036493;28;20239;-65
2023/02/20 09:23:49;;;;;;;5.35;4.53;;;;;;;;;;5045234;28;20217;-66
2023/02/20 09:26:17;;;;;;;4.75;4.32;;;;;;;;;;5051157;28;20532;-66
2023/02/20 09:28:51;;;;;;;7.10;4.53;;;;;;;;;;5040079;28;20199;-68
2023/02/20 09:31:21;;;;;;;9.27;4.80;;;;;;;;;;5046492;28;20208;-66
2023/02/20 09:33:49;;;;;;;5.95;4.55;;;;;;;;;;5028713;28;20658;-66
2023/02/20 09:36:17;;;;;;;9.02;4.93;;;;;;;;;;5040100;28;20236;-66
2023/02/20 09:38:45;;;;;;;10.23;5.45;;;;;;;;;;5041343;28;20204;-66
2023/02/20 09:41:19;;;;;;;8.63;4.45;;;;;;;;;;5041036;28;20217;-66
2023/02/20 09:43:54;;;;;;;7.07;5.55;;;;;;;;;;5045092;28;20189;-65
2023/02/20 09:46:24;;;;;;;9.02;4.40;;;;;;;;;;5041824;28;20874;-67
2023/02/20 09:48:59;;;;;;;10.88;4.45;;;;;;;;;;5039806;28;20275;-66
2023/02/20 09:51:29;;;;;;;9.55;4.38;;;;;;;;;;5042532;28;20192;-67
2023/02/20 09:53:59;;;;;;;13.80;4.93;;;;;;;;;;5044306;28;20189;-66
2023/02/20 09:56:28;;;;;;;6.88;4.40;;;;;;;;;;5039142;28;20198;-66
2023/02/20 09:59:01;;;;;;;7.15;5.20;;;;;;;;;;5040370;28;20205;-66
2023/02/20 10:01:30;;;;;;;8.52;5.32;;;;;;;;;;5041782;28;20197;-66
2023/02/20 10:04:00;;;;;;;8.23;5.15;;;;;;;;;;5044243;28;20203;-66
2023/02/20 10:06:29;;;;;;;6.40;5.47;;;;;;;;;;5030559;28;20202;-66
2023/02/20 10:08:57;;;;;;;6.15;4.95;;;;;;;;;;5035510;28;20205;-66
2023/02/20 10:11:38;;;;;;;10.85;5.40;;;;;;;;;;5048258;28;20215;-66
2023/02/20 10:14:14;;;;;;;6.53;5.57;;;;;;;;;;5049051;28;20531;-66
2023/02/20 10:16:45;;;;;;;7.00;5.82;;;;;;;;;;5042726;28;20200;-66
2023/02/20 10:19:18;;;;;;;11.85;5.85;;;;;;;;;;5040062;28;20190;-66
2023/02/20 10:21:50;;;;;;;9.38;5.78;;;;;;;;;;5041259;28;20208;-66
2023/02/20 10:24:39;;;;;;;10.82;6.28;;;;;;;;;;5054031;28;20594;-66
2023/02/20 10:27:17;;;;;;;9.55;4.85;;;;;;;;;;5049127;28;20569;-66
2023/02/20 10:29:46;;;;;;;12.52;6.32;;;;;;;;;;5045063;28;20258;-66
2023/02/20 10:32:19;;;;;;;9.60;5.63;;;;;;;;;;5036906;28;20598;-66
2023/02/20 10:34:51;;;;;;;7.97;5.03;;;;;;;;;;5054554;28;20618;-66
2023/02/20 10:37:22;;;;;;;7.35;4.72;;;;;;;;;;5043756;28;20666;-66
2023/02/20 10:39:53;;;;;;;8.45;5.07;;;;;;;;;;5051280;28;20204;-66
2023/02/20 10:42:24;;;;;;;7.50;5.70;;;;;;;;;;5049970;28;20709;-66
2023/02/20 10:45:18;;;;;;;8.10;5.00;;;;;;;;;;5058691;28;20672;-66
2023/02/20 10:48:15;;;;;;;8.68;4.75;;;;;;;;;;5053979;28;20728;-66
2023/02/20 10:50:47;;;;;;;6.05;5.43;;;;;;;;;;5046775;28;20270;-66
2023/02/20 10:53:20;;;;;;;8.70;5.87;;;;;;;;;;5051087;28;20199;-66
2023/02/20 10:55:51;;;;;;;9.20;5.43;;;;;;;;;;5052781;28;20629;-66
2023/02/20 10:58:22;;;;;;;16.00;6.30;;;;;;;;;;5051615;28;20599;-66
2023/02/20 11:00:53;;;;;;;8.00;5.30;;;;;;;;;;5051848;28;20626;-66
2023/02/20 11:03:24;;;;;;;8.17;5.30;;;;;;;;;;5051552;28;21022;-66
2023/02/20 11:05:54;;;;;;;14.10;6.60;;;;;;;;;;5053613;28;21164;-66
2023/02/20 11:08:22;;;;;;;11.33;5.77;;;;;;;;;;5053509;28;20712;-66
2023/02/20 11:10:53;;;;;;;13.23;5.67;;;;;;;;;;5055108;28;21009;-66
2023/02/20 11:13:24;;;;;;;7.83;5.53;;;;;;;;;;5052721;28;20964;-66
2023/02/20 11:15:55;;;;;;;8.90;6.03;;;;;;;;;;5049695;28;20603;-66
2023/02/20 11:18:27;;;;;;;10.23;6.37;;;;;;;;;;5051575;28;20610;-66
2023/02/20 11:20:55;;;;;;;11.43;6.53;;;;;;;;;;5033843;28;20677;-67
2023/02/20 11:23:34;;;;;;;9.33;6.90;;;;;;;;;;5034622;28;20674;-67
2023/02/20 11:26:26;;;;;;;17.17;7.87;;;;;;;;;;5034450;28;20598;-67
2023/02/20 11:28:58;;;;;;;14.17;6.30;;;;;;;;;;5030429;28;20645;-67
2023/02/20 11:31:29;;;;;;;10.33;7.03;;;;;;;;;;5054225;28;20619;-67
2023/02/20 11:37:23;;;;;;;7.90;6.73;;;;;;;;;;5059082;28;20651;-67
2023/02/20 11:39:55;;;;;;;7.73;6.00;;;;;;;;;;5059850;28;21213;-66
2023/02/20 11:42:25;;;;;;;12.40;6.20;;;;;;;;;;5057766;28;21254;-67
2023/02/20 11:48:15;;;;;;;11.70;7.13;;;;;;;;;;5057490;28;20710;-67
2023/02/20 11:50:44;;;;;;;7.67;6.60;;;;;;;;;;5054776;28;20597;-66
2023/02/20 11:53:20;;;;;;;7.83;6.53;;;;;;;;;;5054379;28;20961;-66
2023/02/20 11:55:48;;;;;;;13.40;7.23;;;;;;;;;;5053674;28;20678;-67
2023/02/20 11:58:25;;;;;;;10.23;7.40;;;;;;;;;;5053887;28;20613;-66
2023/02/20 12:00:54;;;;;;;9.73;7.07;;;;;;;;;;5048576;28;20632;-66
2023/02/20 12:03:24;;;;;;;8.83;7.47;;;;;;;;;;5030941;28;20651;-67
2023/02/20 12:05:53;;;;;;;11.50;7.40;;;;;;;;;;5033024;28;20903;-66
2023/02/20 12:08:29;;;;;;;7.43;6.67;;;;;;;;;;5032856;28;20615;-66
2023/02/20 12:10:59;;;;;;;9.57;6.80;;;;;;;;;;5032677;28;20602;-66
2023/02/20 12:13:28;;;;;;;12.97;8.10;;;;;;;;;;5033092;28;20584;-66
2023/02/20 12:16:01;;;;;;;8.97;7.73;;;;;;;;;;5033062;28;20608;-66
2023/02/20 12:18:37;;;;;;;11.17;7.90;;;;;;;;;;5032864;28;20591;-67
2023/02/20 12:21:16;;;;;;;9.07;8.17;;;;;;;;;;5046814;28;20617;-67
2023/02/20 12:23:49;;;;;;;7.37;6.87;;;;;;;;;;5052753;28;20676;-66
2023/02/20 12:26:23;;;;;;;9.03;7.30;;;;;;;;;;5052715;28;20597;-66
2023/02/20 12:28:56;;;;;;;20.17;9.03;;;;;;;;;;5053710;28;20586;-64
2023/02/20 12:31:34;;;;;;;13.50;8.83;;;;;;;;;;5053344;28;20587;-66
2023/02/20 12:34:11;;;;;;;8.60;7.80;;;;;;;;;;5053422;28;20582;-66
2023/02/20 12:36:41;;;;;;;8.83;8.00;;;;;;;;;;5047066;28;20682;-66
2023/02/20 12:39:18;;;;;;;10.70;9.73;;;;;;;;;;5053201;28;20611;-66
2023/02/20 12:41:53;;;;;;;9.93;8.10;;;;;;;;;;5052910;28;20571;-66
2023/02/20 12:44:28;;;;;;;15.43;8.20;;;;;;;;;;5052603;28;21204;-66
2023/02/20 12:47:01;;;;;;;8.57;7.77;;;;;;;;;;5052415;28;20574;-67
2023/02/20 12:49:47;;;;;;;9.20;8.47;;;;;;;;;;5052551;28;20594;-66
2023/02/20 12:52:26;;;;;;;12.37;8.27;;;;;;;;;;5037522;28;21070;-66
2023/02/20 12:54:57;;;;;;;10.80;8.83;;;;;;;;;;5052612;28;20610;-66
2023/02/20 12:57:30;;;;;;;10.73;9.83;;;;;;;;;;5052584;28;20585;-66
2023/02/20 12:59:59;;;;;;;9.83;8.93;;;;;;;;;;5050840;28;20966;-66
2023/02/20 13:02:30;;;;;;;12.80;9.93;;;;;;;;;;5051333;28;20619;-65
2023/02/20 13:04:59;;;;;;;10.17;8.13;;;;;;;;;;5051068;28;20633;-66
2023/02/20 13:07:34;;;;;;;10.57;8.83;;;;;;;;;;5051343;28;20644;-66
2023/02/20 13:10:05;;;;;;;12.03;9.47;;;;;;;;;;5052095;28;20590;-66
2023/02/20 13:12:33;;;;;;;10.77;9.77;;;;;;;;;;5051430;28;20579;-66
2023/02/20 13:15:07;;;;;;;9.50;8.80;;;;;;;;;;5050252;28;20988;-66
2023/02/20 13:17:40;;;;;;;9.80;9.03;;;;;;;;;;5049898;28;20623;-66
2023/02/20 13:20:15;;;;;;;9.40;8.37;;;;;;;;;;5052400;28;20619;-67
2023/02/20 13:22:58;;;;;;;9.53;8.63;;;;;;;;;;5052346;28;20994;-66
2023/02/20 13:25:38;;;;;;;9.60;8.63;;;;;;;;;;5052123;28;20575;-67
2023/02/20 13:28:14;;;;;;;8.80;8.10;;;;;;;;;;5052225;28;20619;-67
2023/02/20 13:30:43;;;;;;;12.90;8.20;;;;;;;;;;5052255;28;20579;-66
2023/02/20 13:33:18;;;;;;;9.33;8.40;;;;;;;;;;5052506;28;20615;-66
2023/02/20 13:35:50;;;;;;;9.60;9.00;;;;;;;;;;5045795;28;21032;-66
2023/02/20 13:38:21;;;;;;;9.37;8.57;;;;;;;;;;5048810;28;20618;-67
2023/02/20 13:41:04;;;;;;;11.73;8.80;;;;;;;;;;5048656;28;20628;-66
2023/02/20 13:43:33;;;;;;;10.17;9.27;;;;;;;;;;5054283;28;20646;-67
2023/02/20 13:46:19;;;;;;;9.20;8.60;;;;;;;;;;5054628;28;20727;-67
2023/02/20 13:48:48;;;;;;;10.13;9.13;;;;;;;;;;5051636;28;20610;-67
2023/02/20 13:51:33;;;;;;;9.57;8.67;;;;;;;;;;5049116;28;21004;-67
2023/02/20 13:54:20;;;;;;;8.37;7.70;;;;;;;;;;5049898;28;21169;-67
2023/02/20 13:56:51;;;;;;;8.20;7.60;;;;;;;;;;5048951;28;20602;-67
2023/02/20 13:59:21;;;;;;;8.07;7.57;;;;;;;;;;5048684;28;20606;-66
2023/02/20 14:01:56;;;;;;;8.57;8.13;;;;;;;;;;5044181;28;20634;-67
2023/02/20 14:04:24;;;;;;;8.93;8.30;;;;;;;;;;5042990;28;21268;-67
2023/02/20 14:06:53;;;;;;;8.77;8.00;;;;;;;;;;5041911;28;20624;-67
2023/02/20 14:09:23;;;;;;;9.23;8.50;;;;;;;;;;5049803;28;20630;-67
2023/02/20 14:11:54;;;;;;;8.73;8.20;;;;;;;;;;5055346;28;20619;-67
2023/02/20 14:14:27;;;;;;;8.50;8.00;;;;;;;;;;5045559;28;20611;-66
2023/02/20 14:17:04;;;;;;;8.20;7.80;;;;;;;;;;5054113;28;20679;-65
2023/02/20 14:19:32;;;;;;;9.10;8.50;;;;;;;;;;5050943;28;20617;-67
2023/02/20 14:22:14;;;;;;;8.00;7.50;;;;;;;;;;5046151;28;20632;-67
2023/02/20 14:24:42;;;;;;;8.80;8.30;;;;;;;;;;5054345;28;20652;-69
2023/02/20 14:30:08;;;;;;;9.03;8.13;;;;;;;;;;5088739;28;20726;-66
2023/02/20 14:32:36;;;;;;;8.43;7.80;;;;;;;;;;5086084;28;21248;-68
2023/02/20 14:35:10;;;;;;;8.90;8.17;;;;;;;;;;5068828;28;20630;-67
2023/02/20 14:37:43;;;;;;;10.13;8.07;;;;;;;;;;5064795;28;20603;-67
2023/02/20 14:40:14;;;;;;;8.50;7.90;;;;;;;;;;5079216;28;21201;-66
2023/02/20 14:42:44;;;;;;;8.07;7.47;;;;;;;;;;5071641;28;20734;-65
2023/02/20 14:45:15;;;;;;;7.80;7.40;;;;;;;;;;5071565;28;20206;-66
2023/02/20 14:47:51;;;;;;;10.40;7.93;;;;;;;;;;5075554;28;20976;-66
2023/02/20 14:50:21;;;;;;;9.67;8.70;;;;;;;;;;5067777;28;20618;-67
2023/02/20 14:53:01;;;;;;;7.97;7.57;;;;;;;;;;5067839;28;20625;-67
2023/02/20 14:55:29;;;;;;;8.53;8.00;;;;;;;;;;5066713;28;20602;-67
2023/02/20 14:57:58;;;;;;;8.70;8.10;;;;;;;;;;5067904;28;20621;-67
2023/02/20 15:00:34;;;;;;;8.90;8.13;;;;;;;;;;5067935;28;20622;-68
2023/02/20 15:03:07;;;;;;;9.00;8.40;;;;;;;;;;5061161;28;21046;-69
2023/02/20 15:05:37;;;;;;;8.80;7.90;;;;;;;;;;5066949;28;21147;-67
2023/02/20 15:08:15;;;;;;;8.60;8.10;;;;;;;;;;5067479;28;20626;-68
2023/02/20 15:10:47;;;;;;;9.83;8.83;;;;;;;;;;5067917;28;20598;-69
2023/02/20 15:13:17;;;;;;;9.73;9.03;;;;;;;;;;5068110;28;20614;-68
2023/02/20 15:15:47;;;;;;;8.30;7.50;;;;;;;;;;5057558;28;20626;-67
2023/02/20 15:18:17;;;;;;;9.20;8.43;;;;;;;;;;5068063;28;21154;-67
2023/02/20 15:20:47;;;;;;;8.30;7.70;;;;;;;;;;5068637;28;21193;-68
2023/02/20 15:23:24;;;;;;;9.13;8.53;;;;;;;;;;5068581;28;20644;-68
2023/02/20 15:25:52;;;;;;;9.10;8.37;;;;;;;;;;5068480;28;20659;-68
2023/02/20 15:28:28;;;;;;;8.20;7.70;;;;;;;;;;5064544;28;20688;-68
2023/02/20 15:31:05;;;;;;;8.60;8.00;;;;;;;;;;5065860;28;21173;-68
2023/02/20 15:33:34;;;;;;;9.73;8.83;;;;;;;;;;5068166;28;20609;-68
2023/02/20 15:36:03;;;;;;;8.77;8.20;;;;;;;;;;5067118;28;20610;-68
2023/02/20 15:38:32;;;;;;;8.93;8.43;;;;;;;;;;5067303;28;20716;-69
2023/02/20 15:41:01;;;;;;;9.77;9.13;;;;;;;;;;5056869;28;20622;-69